createdAt,value
2018-12-10T00:01:40.287Z,4.00
2018-12-10T00:04:12.624Z,4.20
2018-12-10T00:06:45.199Z,3.90
2018-12-10T00:09:17.778Z,4.13
2018-12-10T00:11:50.238Z,4.10
2018-12-10T00:14:22.779Z,4.63
2018-12-10T00:16:55.320Z,4.20
2018-12-10T00:19:28.114Z,3.77
2018-12-10T00:22:00.633Z,3.73
2018-12-10T00:24:33.088Z,4.70
2018-12-10T00:27:05.484Z,3.87
2018-12-10T00:29:38.013Z,3.60
2018-12-10T00:32:10.374Z,3.23
2018-12-10T00:34:42.734Z,3.30
2018-12-10T00:37:15.334Z,3.00
2018-12-10T00:39:47.704Z,3.10
2018-12-10T00:42:20.319Z,2.80
2018-12-10T00:44:52.683Z,3.20
2018-12-10T00:47:24.994Z,3.40
2018-12-10T00:49:57.511Z,3.67
2018-12-10T00:52:30.364Z,3.83
2018-12-10T00:55:03.233Z,3.23
2018-12-10T00:57:35.772Z,3.33
2018-12-10T01:00:08.509Z,4.00
2018-12-10T01:02:40.889Z,4.30
2018-12-10T01:05:13.442Z,4.00
2018-12-10T01:07:46.034Z,3.70
2018-12-10T01:10:18.624Z,4.10
2018-12-10T01:12:50.977Z,3.03
2018-12-10T01:15:23.292Z,3.80
2018-12-10T01:17:55.800Z,3.43
2018-12-10T01:20:28.222Z,3.37
2018-12-10T01:23:00.569Z,3.40
2018-12-10T01:25:33.594Z,3.30
2018-12-10T01:28:06.203Z,3.53
2018-12-10T01:30:38.811Z,3.20
2018-12-10T01:33:11.178Z,3.10
2018-12-10T01:35:44.761Z,3.93
2018-12-10T01:38:17.512Z,3.77
2018-12-10T01:40:50.120Z,3.30
2018-12-10T01:43:22.638Z,3.33
2018-12-10T01:45:54.978Z,3.70
2018-12-10T01:48:27.385Z,3.20
2018-12-10T01:50:59.872Z,3.27
2018-12-10T01:53:32.475Z,3.67
2018-12-10T01:56:04.895Z,2.90
2018-12-10T01:58:37.440Z,3.20
2018-12-10T02:01:09.808Z,3.17
2018-12-10T02:03:42.284Z,2.93
2018-12-10T02:06:14.765Z,3.10
2018-12-10T02:08:47.123Z,3.73
2018-12-10T02:11:19.528Z,3.50
2018-12-10T02:13:52.036Z,2.93
2018-12-10T02:16:24.325Z,3.23
2018-12-10T02:18:56.760Z,3.30
2018-12-10T02:21:29.473Z,2.97
2018-12-10T02:24:01.989Z,2.50
2018-12-10T02:26:34.452Z,3.07
2018-12-10T02:29:12.909Z,2.80
2018-12-10T02:31:45.540Z,2.80
2018-12-10T02:34:18.102Z,3.37
2018-12-10T02:36:50.508Z,2.63
2018-12-10T02:39:22.934Z,2.60
2018-12-10T02:41:55.556Z,2.73
2018-12-10T02:44:34.802Z,3.00
2018-12-10T02:47:07.220Z,2.43
2018-12-10T02:49:39.950Z,2.87
2018-12-10T02:52:12.507Z,2.77
2018-12-10T02:54:45.219Z,2.73
2018-12-10T02:57:17.610Z,2.37
2018-12-10T02:59:49.941Z,2.67
2018-12-10T03:02:22.535Z,2.80
2018-12-10T03:04:55.214Z,2.70
2018-12-10T03:07:27.729Z,2.30
2018-12-10T03:10:00.179Z,2.70
2018-12-10T03:12:32.684Z,2.23
2018-12-10T03:15:05.357Z,2.33
2018-12-10T03:17:37.880Z,2.67
2018-12-10T03:20:10.373Z,3.10
2018-12-10T03:22:42.980Z,2.37
2018-12-10T03:25:15.408Z,3.00
2018-12-10T03:27:47.913Z,2.80
2018-12-10T03:30:20.556Z,2.47
2018-12-10T03:32:53.087Z,2.43
2018-12-10T03:35:25.655Z,2.43
2018-12-10T03:37:58.074Z,3.10
2018-12-10T03:40:30.648Z,2.83
2018-12-10T03:43:03.095Z,2.87
2018-12-10T03:45:35.768Z,2.60
2018-12-10T03:48:08.139Z,3.07
2018-12-10T03:50:40.594Z,2.93
2018-12-10T03:53:13.094Z,2.80
2018-12-10T03:55:45.713Z,2.77
2018-12-10T03:58:18.154Z,2.53
2018-12-10T04:00:50.984Z,2.53
2018-12-10T04:03:23.417Z,2.63
2018-12-10T04:05:55.840Z,2.93
2018-12-10T04:08:28.533Z,3.60
2018-12-10T04:11:00.789Z,2.80
2018-12-10T04:13:40.137Z,2.80
2018-12-10T04:16:12.534Z,2.40
2018-12-10T04:18:45.030Z,2.70
2018-12-10T04:21:17.890Z,2.33
2018-12-10T04:23:50.605Z,1.97
2018-12-10T04:26:23.029Z,2.03
2018-12-10T04:28:55.494Z,2.33
2018-12-10T04:31:27.914Z,2.40
2018-12-10T04:34:00.488Z,2.13
2018-12-10T04:36:33.236Z,2.30
2018-12-10T04:39:05.793Z,2.67
2018-12-10T04:41:45.418Z,2.53
2018-12-10T04:44:17.914Z,2.77
2018-12-10T04:46:50.521Z,2.37
2018-12-10T04:49:22.950Z,2.53
2018-12-10T04:51:55.310Z,2.67
2018-12-10T04:54:27.834Z,2.40
2018-12-10T04:57:00.290Z,2.47
2018-12-10T04:59:32.792Z,2.43
2018-12-10T05:02:05.139Z,2.20
2018-12-10T05:04:37.695Z,2.47
2018-12-10T05:07:10.229Z,2.10
2018-12-10T05:09:42.993Z,2.77
2018-12-10T05:12:15.395Z,2.43
2018-12-10T05:14:47.846Z,2.00
2018-12-10T05:17:20.416Z,1.97
2018-12-10T05:19:52.961Z,2.23
2018-12-10T05:22:25.384Z,2.10
2018-12-10T05:24:57.855Z,2.00
2018-12-10T05:27:30.293Z,2.50
2018-12-10T05:30:03.576Z,2.33
2018-12-10T05:32:36.134Z,2.00
2018-12-10T05:35:08.560Z,2.50
2018-12-10T05:37:41.033Z,2.53
2018-12-10T05:40:13.671Z,2.07
2018-12-10T05:42:45.968Z,2.40
2018-12-10T05:45:18.437Z,2.50
2018-12-10T05:47:51.030Z,2.47
2018-12-10T05:50:23.434Z,2.70
2018-12-10T05:52:55.759Z,2.57
2018-12-10T05:55:28.226Z,2.20
2018-12-10T05:58:00.888Z,2.10
2018-12-10T06:00:33.330Z,2.33
2018-12-10T06:03:05.743Z,2.50
2018-12-10T06:05:38.164Z,2.50
2018-12-10T06:08:10.555Z,2.10
2018-12-10T06:10:43.019Z,2.43
2018-12-10T06:13:15.426Z,2.37
2018-12-10T06:15:47.828Z,2.37
2018-12-10T06:18:20.349Z,2.13
2018-12-10T06:20:52.820Z,2.33
2018-12-10T06:23:25.429Z,2.53
2018-12-10T06:25:57.938Z,2.70
2018-12-10T06:28:30.472Z,2.47
2018-12-10T06:31:03.108Z,2.33
2018-12-10T06:33:35.573Z,2.50
2018-12-10T06:36:08.196Z,2.17
2018-12-10T06:38:40.573Z,2.70
2018-12-10T06:41:13.158Z,2.83
2018-12-10T06:43:45.803Z,3.07
2018-12-10T06:46:18.408Z,2.73
2018-12-10T06:48:50.980Z,2.90
2018-12-10T06:51:23.395Z,2.63
2018-12-10T06:53:55.945Z,2.83
2018-12-10T06:56:28.318Z,2.97
2018-12-10T06:59:00.638Z,3.10
2018-12-10T07:01:40.534Z,2.53
2018-12-10T07:04:13.093Z,3.00
2018-12-10T07:06:45.643Z,2.40
2018-12-10T07:09:18.284Z,2.43
2018-12-10T07:11:50.632Z,2.53
2018-12-10T07:14:23.008Z,2.30
2018-12-10T07:16:55.540Z,2.67
2018-12-10T07:19:27.873Z,2.03
2018-12-10T07:22:00.585Z,2.80
2018-12-10T07:24:33.054Z,2.40
2018-12-10T07:27:05.598Z,2.47
2018-12-10T07:29:38.275Z,2.40
2018-12-10T07:32:10.930Z,2.40
2018-12-10T07:34:43.334Z,2.80
2018-12-10T07:37:15.720Z,2.40
2018-12-10T07:39:48.254Z,2.87
2018-12-10T07:42:20.872Z,2.53
2018-12-10T07:44:53.335Z,2.93
2018-12-10T07:47:25.733Z,2.40
2018-12-10T07:49:58.283Z,2.07
2018-12-10T07:52:30.764Z,2.30
2018-12-10T07:55:03.324Z,2.37
2018-12-10T07:57:36.127Z,2.00
2018-12-10T08:00:08.933Z,2.97
2018-12-10T08:02:41.476Z,2.73
2018-12-10T08:05:14.056Z,2.90
2018-12-10T08:07:46.705Z,2.30
2018-12-10T08:10:19.183Z,2.40
2018-12-10T08:12:51.818Z,2.57
2018-12-10T08:15:24.295Z,2.80
2018-12-10T08:17:56.748Z,2.63
2018-12-10T08:20:29.364Z,2.30
2018-12-10T08:23:01.798Z,2.37
2018-12-10T08:25:34.399Z,2.20
2018-12-10T08:28:06.937Z,2.00
2018-12-10T08:30:39.337Z,2.47
2018-12-10T08:33:11.973Z,2.13
2018-12-10T08:35:44.553Z,2.10
2018-12-10T08:38:16.969Z,2.13
2018-12-10T08:40:49.338Z,2.83
2018-12-10T08:43:21.777Z,2.33
2018-12-10T08:45:54.196Z,2.40
2018-12-10T08:48:26.687Z,2.67
2018-12-10T08:50:59.127Z,2.57
2018-12-10T08:53:32.039Z,2.20
2018-12-10T08:56:04.698Z,2.03
2018-12-10T08:58:37.353Z,1.90
2018-12-10T09:01:09.764Z,2.37
2018-12-10T09:03:42.188Z,3.03
2018-12-10T09:06:14.862Z,2.10
2018-12-10T09:08:47.548Z,2.60
2018-12-10T09:11:20.131Z,2.20
2018-12-10T09:13:52.551Z,2.00
2018-12-10T09:16:24.952Z,2.80
2018-12-10T09:18:57.322Z,2.03
2018-12-10T09:21:29.726Z,2.30
2018-12-10T09:24:02.442Z,2.00
2018-12-10T09:26:34.997Z,2.13
2018-12-10T09:29:07.392Z,2.13
2018-12-10T09:31:39.725Z,2.03
2018-12-10T09:34:12.164Z,2.33
2018-12-10T09:36:44.497Z,2.20
2018-12-10T09:39:17.002Z,2.20
2018-12-10T09:41:49.651Z,2.63
2018-12-10T09:44:22.263Z,2.70
2018-12-10T09:46:58.894Z,2.70
2018-12-10T09:49:29.342Z,2.33
2018-12-10T09:52:01.797Z,2.57
2018-12-10T09:54:34.290Z,2.50
2018-12-10T09:57:06.912Z,2.47
2018-12-10T09:59:39.556Z,2.43
2018-12-10T10:02:12.540Z,2.50
2018-12-10T10:04:45.292Z,2.10
2018-12-10T10:07:18.024Z,2.13
2018-12-10T10:09:50.483Z,2.47
2018-12-10T10:12:23.771Z,2.20
2018-12-10T10:14:56.217Z,2.77
2018-12-10T10:17:28.928Z,2.30
2018-12-10T10:20:01.362Z,2.70
2018-12-10T10:22:33.743Z,2.40
2018-12-10T10:25:06.567Z,2.20
2018-12-10T10:27:38.996Z,2.50
2018-12-10T10:30:11.497Z,2.67
2018-12-10T10:32:43.837Z,2.80
2018-12-10T10:35:16.151Z,2.93
2018-12-10T10:37:48.562Z,2.70
2018-12-10T10:40:21.028Z,2.63
2018-12-10T10:42:53.596Z,2.87
2018-12-10T10:45:34.485Z,3.10
2018-12-10T10:48:01.603Z,2.80
2018-12-10T10:50:34.154Z,2.50
2018-12-10T10:53:06.577Z,2.60
2018-12-10T10:55:39.048Z,2.57
2018-12-10T10:58:11.709Z,3.10
2018-12-10T11:00:50.316Z,2.80
2018-12-10T11:03:28.756Z,2.20
2018-12-10T11:06:01.158Z,2.20
2018-12-10T11:08:33.614Z,2.43
2018-12-10T11:11:06.222Z,2.60
2018-12-10T11:13:39.003Z,2.23
2018-12-10T11:16:11.542Z,2.33
2018-12-10T11:18:43.918Z,2.50
2018-12-10T11:21:16.997Z,2.43
2018-12-10T11:23:49.601Z,3.00
2018-12-10T11:26:21.957Z,2.33
2018-12-10T11:28:54.779Z,2.20
2018-12-10T11:31:27.263Z,2.30
2018-12-10T11:34:00.056Z,2.67
2018-12-10T11:36:32.434Z,2.13
2018-12-10T11:39:12.513Z,2.50
2018-12-10T11:41:46.579Z,2.20
2018-12-10T11:44:19.718Z,2.60
2018-12-10T11:46:52.674Z,2.17
2018-12-10T11:49:25.290Z,2.43
2018-12-10T11:51:58.006Z,1.97
2018-12-10T11:54:30.660Z,2.27
2018-12-10T11:57:03.037Z,2.30
2018-12-10T11:59:35.653Z,2.67
2018-12-10T12:02:08.199Z,2.27
2018-12-10T12:04:40.811Z,2.07
2018-12-10T12:07:13.262Z,1.90
2018-12-10T12:09:45.767Z,2.20
2018-12-10T12:12:18.386Z,2.30
2018-12-10T12:14:50.992Z,2.50
2018-12-10T12:17:23.524Z,2.50
2018-12-10T12:19:56.197Z,2.10
2018-12-10T12:22:28.678Z,1.93
2018-12-10T12:25:01.287Z,2.27
2018-12-10T12:27:34.038Z,2.13
2018-12-10T12:30:07.183Z,2.37
2018-12-10T12:32:39.646Z,2.10
2018-12-10T12:35:12.063Z,2.50
2018-12-10T12:37:44.499Z,2.40
2018-12-10T12:40:16.913Z,2.03
2018-12-10T12:42:49.408Z,2.60
2018-12-10T12:45:21.857Z,2.30
2018-12-10T12:47:54.507Z,2.10
2018-12-10T12:50:26.857Z,2.63
2018-12-10T12:52:59.292Z,2.53
2018-12-10T12:55:31.764Z,2.60
2018-12-10T12:58:04.541Z,2.20
2018-12-10T13:00:41.901Z,2.00
2018-12-10T13:03:11.362Z,2.03
2018-12-10T13:05:44.000Z,2.27
2018-12-10T13:08:16.605Z,2.17
2018-12-10T13:10:55.945Z,2.47
2018-12-10T13:13:28.512Z,2.33
2018-12-10T13:16:01.142Z,2.00
2018-12-10T13:18:33.563Z,1.80
2018-12-10T13:21:05.973Z,2.10
2018-12-10T13:23:38.493Z,2.40
2018-12-10T13:26:11.069Z,1.90
2018-12-10T13:28:43.482Z,1.77
2018-12-10T13:31:15.826Z,2.00
2018-12-10T13:33:48.225Z,1.63
2018-12-10T13:36:20.792Z,2.00
2018-12-10T13:38:53.252Z,2.10
2018-12-10T13:41:25.893Z,2.37
2018-12-10T13:43:59.546Z,2.00
2018-12-10T13:46:32.173Z,1.70
2018-12-10T13:49:04.824Z,1.77
2018-12-10T13:51:37.288Z,1.90
2018-12-10T13:54:09.667Z,2.10
2018-12-10T13:56:42.087Z,2.37
2018-12-10T13:59:14.604Z,2.10
2018-12-10T14:01:47.053Z,2.27
2018-12-10T14:04:19.821Z,2.23
2018-12-10T14:06:52.387Z,2.13
2018-12-10T14:09:25.191Z,2.10
2018-12-10T14:11:57.722Z,2.07
2018-12-10T14:14:30.595Z,2.10
2018-12-10T14:17:03.142Z,1.50
2018-12-10T14:19:35.658Z,1.60
2018-12-10T14:22:08.218Z,1.30
2018-12-10T14:24:47.457Z,1.13
2018-12-10T14:27:20.158Z,1.30
2018-12-10T14:29:52.955Z,1.40
2018-12-10T14:32:25.478Z,1.10
2018-12-10T14:34:57.912Z,1.17
2018-12-10T14:37:30.652Z,1.00
2018-12-10T14:40:04.495Z,1.50
2018-12-10T14:42:49.014Z,1.30
2018-12-10T14:45:21.596Z,1.60
2018-12-10T14:47:54.163Z,1.67
2018-12-10T14:50:26.773Z,1.40
2018-12-10T14:52:59.286Z,1.53
2018-12-10T14:55:31.907Z,3.10
2018-12-10T14:58:04.368Z,1.30
2018-12-10T15:00:37.002Z,1.20
2018-12-10T15:03:09.766Z,1.60
2018-12-10T15:05:42.201Z,1.47
2018-12-10T15:08:15.023Z,1.33
2018-12-10T15:10:47.598Z,1.30
2018-12-10T15:13:20.056Z,1.40
2018-12-10T15:15:52.515Z,1.50
2018-12-10T15:18:24.996Z,1.67
2018-12-10T15:20:57.587Z,1.37
2018-12-10T15:23:30.156Z,1.60
2018-12-10T15:26:02.863Z,2.17
2018-12-10T15:28:35.479Z,1.67
2018-12-10T15:31:08.176Z,1.17
2018-12-10T15:33:40.702Z,1.60
2018-12-10T15:36:13.164Z,1.67
2018-12-10T15:38:45.771Z,1.50
2018-12-10T15:41:18.353Z,1.70
2018-12-10T15:43:51.078Z,2.07
2018-12-10T15:46:30.498Z,1.70
2018-12-10T15:49:03.175Z,1.80
2018-12-10T15:51:35.676Z,1.40
2018-12-10T15:54:08.361Z,1.80
2018-12-10T15:56:41.309Z,1.80
2018-12-10T15:59:13.908Z,2.20
2018-12-10T16:01:46.596Z,1.77
2018-12-10T16:04:19.103Z,1.97
2018-12-10T16:06:51.560Z,2.03
2018-12-10T16:09:24.082Z,2.00
2018-12-10T16:11:56.718Z,1.87
2018-12-10T16:14:29.407Z,1.80
2018-12-10T16:17:02.038Z,2.47
2018-12-10T16:19:34.729Z,1.90
2018-12-10T16:22:07.249Z,2.53
2018-12-10T16:24:40.004Z,2.10
2018-12-10T16:27:13.035Z,1.90
2018-12-10T16:29:45.730Z,2.50
2018-12-10T16:32:18.301Z,2.40
2018-12-10T16:34:51.037Z,2.67
2018-12-10T16:37:23.536Z,3.10
2018-12-10T16:39:56.033Z,2.83
2018-12-10T16:42:28.496Z,2.70
2018-12-10T16:45:01.410Z,2.70
2018-12-10T16:47:33.898Z,2.90
2018-12-10T16:50:07.378Z,2.43
2018-12-10T16:52:40.019Z,2.63
2018-12-10T16:55:12.770Z,2.57
2018-12-10T16:57:45.467Z,2.70
2018-12-10T17:00:18.233Z,2.73
2018-12-10T17:02:51.072Z,3.57
2018-12-10T17:05:25.531Z,3.10
2018-12-10T17:07:58.118Z,3.37
2018-12-10T17:10:30.734Z,3.00
2018-12-10T17:13:03.457Z,3.60
2018-12-10T17:15:35.987Z,4.97
2018-12-10T17:18:08.558Z,4.23
2018-12-10T17:20:41.250Z,3.50
2018-12-10T17:23:13.667Z,3.53
2018-12-10T17:25:46.339Z,2.87
2018-12-10T17:28:19.129Z,3.20
2018-12-10T17:30:51.728Z,3.63
2018-12-10T17:33:24.267Z,3.20
2018-12-10T17:35:56.869Z,3.77
2018-12-10T17:38:29.494Z,3.50
2018-12-10T17:41:06.624Z,3.70
2018-12-10T17:43:36.633Z,2.83
2018-12-10T17:46:09.320Z,2.50
2018-12-10T17:48:41.954Z,3.40
2018-12-10T17:51:14.440Z,3.30
2018-12-10T17:53:47.567Z,2.73
2018-12-10T17:56:20.189Z,2.83
2018-12-10T17:58:52.973Z,4.97
2018-12-10T18:01:25.614Z,3.33
2018-12-10T18:03:58.150Z,3.93
2018-12-10T18:06:30.826Z,3.17
2018-12-10T18:09:05.829Z,2.80
2018-12-10T18:11:38.414Z,3.03
2018-12-10T18:14:10.801Z,2.80
2018-12-10T18:16:43.678Z,3.80
2018-12-10T18:19:16.278Z,4.43
2018-12-10T18:21:49.450Z,2.83
2018-12-10T18:24:22.187Z,2.63
2018-12-10T18:26:54.699Z,2.33
2018-12-10T18:29:27.683Z,2.57
2018-12-10T18:32:00.143Z,3.40
2018-12-10T18:34:32.834Z,2.60
2018-12-10T18:37:05.514Z,2.50
2018-12-10T18:39:38.160Z,4.13
2018-12-10T18:42:11.003Z,3.17
2018-12-10T18:44:43.530Z,3.10
2018-12-10T18:47:16.274Z,3.30
2018-12-10T18:49:48.745Z,3.23
2018-12-10T18:52:21.583Z,4.13
2018-12-10T18:54:54.133Z,6.10
2018-12-10T18:57:26.729Z,4.37
2018-12-10T18:59:59.554Z,3.83
2018-12-10T19:02:32.374Z,3.37
2018-12-10T19:05:06.082Z,3.83
2018-12-10T19:07:38.628Z,4.57
2018-12-10T19:10:11.129Z,3.70
2018-12-10T19:12:44.113Z,3.77
2018-12-10T19:15:16.903Z,3.40
2018-12-10T19:17:49.476Z,3.27
2018-12-10T19:20:22.258Z,3.40
2018-12-10T19:22:54.900Z,3.20
2018-12-10T19:25:27.657Z,3.70
2018-12-10T19:28:00.353Z,3.50
2018-12-10T19:30:32.899Z,3.10
2018-12-10T19:33:05.761Z,3.80
2018-12-10T19:35:38.586Z,4.23
2018-12-10T19:38:11.354Z,3.83
2018-12-10T19:40:43.906Z,4.00
2018-12-10T19:43:16.810Z,3.03
2018-12-10T19:45:49.335Z,3.27
2018-12-10T19:48:22.107Z,3.30
2018-12-10T19:50:55.706Z,3.23
2018-12-10T19:53:28.318Z,3.20
2018-12-10T19:56:00.970Z,3.13
2018-12-10T19:58:33.538Z,2.93
2018-12-10T20:01:06.279Z,2.60
2018-12-10T20:03:39.362Z,3.53
2018-12-10T20:06:14.908Z,2.90
2018-12-10T20:08:47.614Z,3.20
2018-12-10T20:11:20.319Z,3.43
2018-12-10T20:13:53.138Z,3.20
2018-12-10T20:16:25.842Z,3.37
2018-12-10T20:18:59.126Z,3.70
2018-12-10T20:21:31.730Z,3.63
2018-12-10T20:24:04.503Z,3.60
2018-12-10T20:26:37.092Z,3.77
2018-12-10T20:29:09.720Z,3.73
2018-12-10T20:31:42.828Z,3.63
2018-12-10T20:34:15.665Z,4.10
2018-12-10T20:36:48.237Z,3.60
2018-12-10T20:39:20.943Z,3.70
2018-12-10T20:41:53.874Z,3.73
2018-12-10T20:44:26.570Z,4.87
2018-12-10T20:46:59.722Z,4.33
2018-12-10T20:49:32.717Z,3.77
2018-12-10T20:52:05.372Z,4.83
2018-12-10T20:54:37.885Z,4.33
2018-12-10T20:57:10.512Z,3.73
2018-12-10T20:59:43.126Z,3.63
2018-12-10T21:02:16.103Z,3.57
2018-12-10T21:04:48.689Z,4.33
2018-12-10T21:07:21.468Z,4.50
2018-12-10T21:09:54.017Z,3.80
2018-12-10T21:12:26.752Z,4.47
2018-12-10T21:15:00.863Z,3.60
2018-12-10T21:17:33.531Z,3.87
2018-12-10T21:20:06.783Z,3.53
2018-12-10T21:22:39.368Z,3.93
2018-12-10T21:25:11.938Z,3.27
2018-12-10T21:27:44.877Z,3.63
2018-12-10T21:30:17.533Z,3.80
2018-12-10T21:32:50.432Z,3.60
2018-12-10T21:35:23.061Z,3.70
2018-12-10T21:37:55.667Z,3.67
2018-12-10T21:40:28.161Z,4.00
2018-12-10T21:43:00.866Z,3.60
2018-12-10T21:45:33.674Z,3.90
2018-12-10T21:48:06.471Z,3.77
2018-12-10T21:50:39.083Z,3.93
2018-12-10T21:53:11.762Z,3.93
2018-12-10T21:55:44.455Z,3.63
2018-12-10T21:58:17.099Z,4.07
2018-12-10T22:00:49.802Z,3.80
2018-12-10T22:03:22.477Z,4.10
2018-12-10T22:05:54.981Z,3.77
2018-12-10T22:08:27.511Z,4.03
2018-12-10T22:11:00.235Z,3.27
2018-12-10T22:13:32.602Z,3.80
2018-12-10T22:16:05.538Z,3.77
2018-12-10T22:18:38.263Z,3.77
2018-12-10T22:21:11.117Z,3.77
2018-12-10T22:23:43.744Z,3.80
2018-12-10T22:26:16.221Z,3.90
2018-12-10T22:28:48.807Z,4.00
2018-12-10T22:31:21.512Z,4.07
2018-12-10T22:33:54.182Z,4.00
2018-12-10T22:36:26.742Z,3.50
2018-12-10T22:38:59.463Z,3.47
2018-12-10T22:41:32.198Z,3.80
2018-12-10T22:44:04.776Z,4.07
2018-12-10T22:46:37.315Z,3.57
2018-12-10T22:49:13.993Z,4.03
2018-12-10T22:51:46.408Z,3.50
2018-12-10T22:54:18.884Z,3.33
2018-12-10T22:56:51.342Z,3.50
2018-12-10T22:59:23.912Z,3.60
2018-12-10T23:01:56.552Z,3.40
2018-12-10T23:04:29.262Z,3.80
2018-12-10T23:07:02.073Z,3.03
2018-12-10T23:09:34.871Z,3.23
2018-12-10T23:12:07.557Z,3.23
2018-12-10T23:14:40.212Z,3.37
2018-12-10T23:17:12.753Z,3.43
2018-12-10T23:19:45.387Z,3.30
2018-12-10T23:22:24.833Z,3.30
2018-12-10T23:24:57.324Z,3.10
2018-12-10T23:27:30.051Z,3.17
2018-12-10T23:30:03.621Z,3.43
2018-12-10T23:32:36.234Z,3.10
2018-12-10T23:35:08.872Z,3.20
2018-12-10T23:37:41.368Z,3.33
2018-12-10T23:40:13.841Z,3.60
2018-12-10T23:42:52.346Z,2.90
2018-12-10T23:45:24.719Z,3.10
2018-12-10T23:47:57.108Z,3.07
2018-12-10T23:50:29.772Z,3.00
2018-12-10T23:53:09.651Z,3.30
2018-12-10T23:55:42.325Z,3.40
2018-12-10T23:58:14.886Z,3.27
